sensor_id;sensor_type;location;lat;lon;timestamp;pressure;altitude;pressure_sealevel;temperature;humidity
64841;BME280;51307;52.162;7.560;2023-11-18T00:00:49;101953.56;;;2.62;77.29
64841;BME280;51307;52.162;7.560;2023-11-18T00:03:14;101960.66;;;2.61;77.38
64841;BME280;51307;52.162;7.560;2023-11-18T00:05:40;101963.53;;;2.57;77.83
64841;BME280;51307;52.162;7.560;2023-11-18T00:08:06;101968.13;;;2.35;77.77
64841;BME280;51307;52.162;7.560;2023-11-18T00:10:32;101970.31;;;2.45;77.75
64841;BME280;51307;52.162;7.560;2023-11-18T00:12:57;101962.66;;;2.56;77.45
64841;BME280;51307;52.162;7.560;2023-11-18T00:15:23;101970.97;;;2.48;76.74
64841;BME280;51307;52.162;7.560;2023-11-18T00:17:48;101973.03;;;2.43;76.58
64841;BME280;51307;52.162;7.560;2023-11-18T00:20:13;101966.41;;;2.34;76.92
64841;BME280;51307;52.162;7.560;2023-11-18T00:22:41;101964.47;;;2.56;76.25
64841;BME280;51307;52.162;7.560;2023-11-18T00:25:07;101968.13;;;2.35;76.95
64841;BME280;51307;52.162;7.560;2023-11-18T00:27:33;101963.47;;;2.41;76.26
64841;BME280;51307;52.162;7.560;2023-11-18T00:30:03;101963.06;;;2.31;76.86
64841;BME280;51307;52.162;7.560;2023-11-18T00:32:31;101958.78;;;2.28;77.07
64841;BME280;51307;52.162;7.560;2023-11-18T00:34:57;101966.56;;;1.96;78.01
64841;BME280;51307;52.162;7.560;2023-11-18T00:37:22;101965.13;;;2.43;76.93
64841;BME280;51307;52.162;7.560;2023-11-18T00:39:48;101957.72;;;2.15;77.60
64841;BME280;51307;52.162;7.560;2023-11-18T00:42:13;101957.63;;;1.99;78.21
64841;BME280;51307;52.162;7.560;2023-11-18T00:44:39;101955.13;;;2.13;77.89
64841;BME280;51307;52.162;7.560;2023-11-18T00:47:04;101956.13;;;1.93;78.13
64841;BME280;51307;52.162;7.560;2023-11-18T00:49:30;101966.25;;;2.20;77.83
64841;BME280;51307;52.162;7.560;2023-11-18T00:51:55;101972.88;;;2.46;76.34
64841;BME280;51307;52.162;7.560;2023-11-18T00:54:21;101973.41;;;2.35;76.22
64841;BME280;51307;52.162;7.560;2023-11-18T00:56:46;101971.41;;;2.23;77.51
64841;BME280;51307;52.162;7.560;2023-11-18T00:59:12;101973.41;;;2.35;77.21
64841;BME280;51307;52.162;7.560;2023-11-18T01:01:37;101976.81;;;2.20;78.10
64841;BME280;51307;52.162;7.560;2023-11-18T01:04:03;101966.97;;;2.24;77.43
64841;BME280;51307;52.162;7.560;2023-11-18T01:06:28;101971.69;;;1.99;78.48
64841;BME280;51307;52.162;7.560;2023-11-18T01:08:54;101973.06;;;2.07;78.32
64841;BME280;51307;52.162;7.560;2023-11-18T01:11:20;101970.59;;;2.39;78.13
64841;BME280;51307;52.162;7.560;2023-11-18T01:13:46;101978.53;;;2.39;77.23
64841;BME280;51307;52.162;7.560;2023-11-18T01:16:12;101977.81;;;2.35;77.53
64841;BME280;51307;52.162;7.560;2023-11-18T01:18:39;101972.59;;;2.68;76.05
64841;BME280;51307;52.162;7.560;2023-11-18T01:21:04;101979.78;;;2.31;78.05
64841;BME280;51307;52.162;7.560;2023-11-18T01:23:30;101987.78;;;2.47;77.31
64841;BME280;51307;52.162;7.560;2023-11-18T01:25:55;101977.81;;;2.17;78.14
64841;BME280;51307;52.162;7.560;2023-11-18T01:28:22;101981.63;;;2.29;78.55
64841;BME280;51307;52.162;7.560;2023-11-18T01:30:51;101979.91;;;2.28;78.72
64841;BME280;51307;52.162;7.560;2023-11-18T01:33:17;101982.50;;;2.47;78.32
64841;BME280;51307;52.162;7.560;2023-11-18T01:35:43;101983.91;;;2.37;78.03
64841;BME280;51307;52.162;7.560;2023-11-18T01:38:09;101986.91;;;2.29;77.46
64841;BME280;51307;52.162;7.560;2023-11-18T01:40:34;101986.78;;;2.32;77.94
64841;BME280;51307;52.162;7.560;2023-11-18T01:43:00;101995.81;;;2.46;78.06
64841;BME280;51307;52.162;7.560;2023-11-18T01:45:25;101986.16;;;2.45;78.50
64841;BME280;51307;52.162;7.560;2023-11-18T01:47:53;101984.53;;;2.25;78.95
64841;BME280;51307;52.162;7.560;2023-11-18T01:50:19;101996.94;;;2.58;77.98
64841;BME280;51307;52.162;7.560;2023-11-18T01:52:47;101993.53;;;2.38;78.63
64841;BME280;51307;52.162;7.560;2023-11-18T01:55:13;101984.75;;;2.37;78.54
64841;BME280;51307;52.162;7.560;2023-11-18T01:57:39;101984.75;;;2.37;78.83
64841;BME280;51307;52.162;7.560;2023-11-18T02:00:09;101975.59;;;2.27;79.16
64841;BME280;51307;52.162;7.560;2023-11-18T02:02:36;101971.53;;;2.20;79.95
64841;BME280;51307;52.162;7.560;2023-11-18T02:05:04;101975.88;;;2.39;78.75
64841;BME280;51307;52.162;7.560;2023-11-18T02:07:33;101975.34;;;2.49;78.26
64841;BME280;51307;52.162;7.560;2023-11-18T02:10:02;101983.28;;;2.32;79.63
64841;BME280;51307;52.162;7.560;2023-11-18T02:15:05;101965.09;;;2.61;78.92
64841;BME280;51307;52.162;7.560;2023-11-18T02:17:38;101975.06;;;2.38;79.62
64841;BME280;51307;52.162;7.560;2023-11-18T02:20:05;101975.88;;;2.39;79.87
64841;BME280;51307;52.162;7.560;2023-11-18T02:22:43;101970.69;;;2.54;80.14
64841;BME280;51307;52.162;7.560;2023-11-18T02:25:09;101969.38;;;2.46;79.94
64841;BME280;51307;52.162;7.560;2023-11-18T02:27:36;101968.75;;;2.58;80.27
64841;BME280;51307;52.162;7.560;2023-11-18T02:30:02;101968.66;;;2.60;79.99
64841;BME280;51307;52.162;7.560;2023-11-18T02:32:34;101973.59;;;2.66;80.20
64841;BME280;51307;52.162;7.560;2023-11-18T02:35:09;101982.03;;;2.90;78.88
64841;BME280;51307;52.162;7.560;2023-11-18T02:37:42;101981.16;;;2.74;79.63
64841;BME280;51307;52.162;7.560;2023-11-18T02:40:16;101980.63;;;3.00;78.49
64841;BME280;51307;52.162;7.560;2023-11-18T02:42:45;101983.94;;;2.88;79.16
64841;BME280;51307;52.162;7.560;2023-11-18T02:45:15;101976.72;;;2.74;79.74
64841;BME280;51307;52.162;7.560;2023-11-18T02:47:45;101973.22;;;2.74;79.85
64841;BME280;51307;52.162;7.560;2023-11-18T02:50:10;101973.72;;;2.98;79.26
64841;BME280;51307;52.162;7.560;2023-11-18T02:52:37;101972.25;;;2.92;79.03
64841;BME280;51307;52.162;7.560;2023-11-18T02:55:06;101966.13;;;2.92;79.89
64841;BME280;51307;52.162;7.560;2023-11-18T02:57:33;101967.53;;;3.15;78.39
64841;BME280;51307;52.162;7.560;2023-11-18T02:59:59;101968.78;;;3.08;78.88
64841;BME280;51307;52.162;7.560;2023-11-18T03:02:26;101954.97;;;2.69;80.54
64841;BME280;51307;52.162;7.560;2023-11-18T03:04:55;101952.59;;;2.80;80.95
64841;BME280;51307;52.162;7.560;2023-11-18T03:07:20;101951.50;;;2.84;80.79
64841;BME280;51307;52.162;7.560;2023-11-18T03:09:46;101952.38;;;2.85;80.83
64841;BME280;51307;52.162;7.560;2023-11-18T03:12:12;101955.03;;;2.85;80.89
64841;BME280;51307;52.162;7.560;2023-11-18T03:14:38;101950.56;;;3.19;79.42
64841;BME280;51307;52.162;7.560;2023-11-18T03:17:04;101935.63;;;3.18;79.31
64841;BME280;51307;52.162;7.560;2023-11-18T03:19:34;101944.47;;;3.17;78.92
64841;BME280;51307;52.162;7.560;2023-11-18T03:22:00;101941.63;;;2.88;80.46
64841;BME280;51307;52.162;7.560;2023-11-18T03:24:27;101937.03;;;2.92;80.77
64841;BME280;51307;52.162;7.560;2023-11-18T03:26:56;101927.72;;;2.84;80.19
64841;BME280;51307;52.162;7.560;2023-11-18T03:29:22;101939.09;;;3.02;80.62
64841;BME280;51307;52.162;7.560;2023-11-18T03:31:49;101927.13;;;2.95;80.50
64841;BME280;51307;52.162;7.560;2023-11-18T03:34:17;101927.78;;;3.16;80.04
64841;BME280;51307;52.162;7.560;2023-11-18T03:36:48;101942.19;;;3.11;79.56
64841;BME280;51307;52.162;7.560;2023-11-18T03:39:13;101932.44;;;3.11;80.30
64841;BME280;51307;52.162;7.560;2023-11-18T03:41:40;101938.94;;;3.06;80.27
64841;BME280;51307;52.162;7.560;2023-11-18T03:44:05;101937.13;;;3.06;80.57
64841;BME280;51307;52.162;7.560;2023-11-18T03:46:31;101937.94;;;3.24;79.35
64841;BME280;51307;52.162;7.560;2023-11-18T03:49:00;101935.28;;;3.08;80.04
64841;BME280;51307;52.162;7.560;2023-11-18T03:51:26;101932.09;;;3.01;80.64
64841;BME280;51307;52.162;7.560;2023-11-18T03:53:52;101936.53;;;3.01;80.23
64841;BME280;51307;52.162;7.560;2023-11-18T03:56:18;101937.22;;;3.04;80.26
64841;BME280;51307;52.162;7.560;2023-11-18T03:58:44;101945.44;;;3.16;80.35
64841;BME280;51307;52.162;7.560;2023-11-18T04:01:09;101945.59;;;3.13;80.10
64841;BME280;51307;52.162;7.560;2023-11-18T04:03:36;101946.88;;;3.06;80.38
64841;BME280;51307;52.162;7.560;2023-11-18T04:06:02;101930.31;;;3.18;80.16
64841;BME280;51307;52.162;7.560;2023-11-18T04:08:28;101922.38;;;3.18;80.13
64841;BME280;51307;52.162;7.560;2023-11-18T04:10:54;101922.88;;;3.09;79.95
64841;BME280;51307;52.162;7.560;2023-11-18T04:13:19;101917.94;;;3.18;79.82
64841;BME280;51307;52.162;7.560;2023-11-18T04:15:45;101924.88;;;3.05;80.78
64841;BME280;51307;52.162;7.560;2023-11-18T04:18:10;101923.25;;;3.02;79.73
64841;BME280;51307;52.162;7.560;2023-11-18T04:20:36;101922.53;;;2.99;80.96
64841;BME280;51307;52.162;7.560;2023-11-18T04:23:02;101925.72;;;3.06;80.50
64841;BME280;51307;52.162;7.560;2023-11-18T04:25:27;101932.09;;;3.01;81.10
64841;BME280;51307;52.162;7.560;2023-11-18T04:27:53;101931.69;;;3.09;80.33
64841;BME280;51307;52.162;7.560;2023-11-18T04:30:18;101921.31;;;2.88;81.45
64841;BME280;51307;52.162;7.560;2023-11-18T04:32:44;101915.94;;;2.90;81.04
64841;BME280;51307;52.162;7.560;2023-11-18T04:35:10;101908.53;;;2.97;80.54
64841;BME280;51307;52.162;7.560;2023-11-18T04:37:37;101906.19;;;3.08;80.42
64841;BME280;51307;52.162;7.560;2023-11-18T04:40:03;101906.00;;;2.95;80.38
64841;BME280;51307;52.162;7.560;2023-11-18T04:42:29;101907.88;;;2.93;81.18
64841;BME280;51307;52.162;7.560;2023-11-18T04:44:57;101897.56;;;3.20;79.73
64841;BME280;51307;52.162;7.560;2023-11-18T04:47:23;101887.25;;;3.16;79.67
64841;BME280;51307;52.162;7.560;2023-11-18T04:49:50;101886.56;;;2.96;80.76
64841;BME280;51307;52.162;7.560;2023-11-18T04:52:17;101884.16;;;3.08;80.13
64841;BME280;51307;52.162;7.560;2023-11-18T04:54:42;101880.50;;;3.10;80.11
64841;BME280;51307;52.162;7.560;2023-11-18T04:57:08;101880.44;;;3.12;79.64
64841;BME280;51307;52.162;7.560;2023-11-18T04:59:34;101878.19;;;2.88;81.13
64841;BME280;51307;52.162;7.560;2023-11-18T05:02:01;101882.09;;;2.97;81.01
64841;BME280;51307;52.162;7.560;2023-11-18T05:04:28;101876.41;;;3.04;80.14
64841;BME280;51307;52.162;7.560;2023-11-18T05:06:53;101872.75;;;3.07;79.68
64841;BME280;51307;52.162;7.560;2023-11-18T05:09:19;101859.91;;;2.83;80.47
64841;BME280;51307;52.162;7.560;2023-11-18T05:11:44;101856.19;;;3.03;79.34
64841;BME280;51307;52.162;7.560;2023-11-18T05:14:10;101859.31;;;2.94;80.14
64841;BME280;51307;52.162;7.560;2023-11-18T05:16:36;101855.16;;;2.90;80.20
64841;BME280;51307;52.162;7.560;2023-11-18T05:19:02;101863.16;;;2.73;80.74
64841;BME280;51307;52.162;7.560;2023-11-18T05:21:28;101854.63;;;2.83;80.39
64841;BME280;51307;52.162;7.560;2023-11-18T05:23:53;101838.44;;;2.90;80.82
64841;BME280;51307;52.162;7.560;2023-11-18T05:26:18;101840.91;;;2.93;80.28
64841;BME280;51307;52.162;7.560;2023-11-18T05:28:44;101834.97;;;2.89;79.99
64841;BME280;51307;52.162;7.560;2023-11-18T05:31:10;101842.53;;;2.95;79.46
64841;BME280;51307;52.162;7.560;2023-11-18T05:33:37;101838.53;;;2.88;80.08
64841;BME280;51307;52.162;7.560;2023-11-18T05:36:03;101834.69;;;2.78;80.38
64841;BME280;51307;52.162;7.560;2023-11-18T05:38:30;101821.72;;;2.73;80.82
64841;BME280;51307;52.162;7.560;2023-11-18T05:41:00;101826.84;;;2.76;80.88
64841;BME280;51307;52.162;7.560;2023-11-18T05:43:30;101838.00;;;2.65;80.24
64841;BME280;51307;52.162;7.560;2023-11-18T05:46:02;101854.28;;;2.74;80.73
64841;BME280;51307;52.162;7.560;2023-11-18T05:48:46;101849.94;;;2.88;80.36
64841;BME280;51307;52.162;7.560;2023-11-18T05:51:12;101836.91;;;2.85;80.22
64841;BME280;51307;52.162;7.560;2023-11-18T05:53:43;101837.75;;;2.86;79.72
64841;BME280;51307;52.162;7.560;2023-11-18T05:56:11;101830.09;;;2.81;80.20
64841;BME280;51307;52.162;7.560;2023-11-18T05:58:37;101840.75;;;2.80;80.38
64841;BME280;51307;52.162;7.560;2023-11-18T06:01:05;101844.94;;;2.84;80.47
64841;BME280;51307;52.162;7.560;2023-11-18T06:03:33;101846.56;;;2.86;80.16
64841;BME280;51307;52.162;7.560;2023-11-18T06:05:58;101854.13;;;2.93;79.92
64841;BME280;51307;52.162;7.560;2023-11-18T06:08:24;101845.09;;;2.81;79.78
64841;BME280;51307;52.162;7.560;2023-11-18T06:10:50;101838.44;;;2.90;79.99
64841;BME280;51307;52.162;7.560;2023-11-18T06:13:22;101838.53;;;2.88;80.24
64841;BME280;51307;52.162;7.560;2023-11-18T06:15:47;101844.22;;;2.80;80.80
64841;BME280;51307;52.162;7.560;2023-11-18T06:18:15;101847.75;;;2.81;80.30
64841;BME280;51307;52.162;7.560;2023-11-18T06:20:40;101850.72;;;2.75;80.48
64841;BME280;51307;52.162;7.560;2023-11-18T06:23:06;101837.31;;;2.78;80.66
64841;BME280;51307;52.162;7.560;2023-11-18T06:25:32;101835.19;;;2.68;80.64
64841;BME280;51307;52.162;7.560;2023-11-18T06:27:59;101832.31;;;2.73;80.03
64841;BME280;51307;52.162;7.560;2023-11-18T06:30:25;101831.44;;;2.88;80.01
64841;BME280;51307;52.162;7.560;2023-11-18T06:32:51;101830.69;;;2.70;80.18
64841;BME280;51307;52.162;7.560;2023-11-18T06:35:17;101830.41;;;2.75;80.48
64841;BME280;51307;52.162;7.560;2023-11-18T06:37:42;101821.38;;;2.63;80.82
64841;BME280;51307;52.162;7.560;2023-11-18T06:40:08;101830.59;;;2.72;80.53
64841;BME280;51307;52.162;7.560;2023-11-18T06:42:44;101828.88;;;2.71;79.97
64841;BME280;51307;52.162;7.560;2023-11-18T06:45:13;101826.44;;;2.84;79.56
64841;BME280;51307;52.162;7.560;2023-11-18T06:47:40;101827.09;;;2.72;79.62
64841;BME280;51307;52.162;7.560;2023-11-18T06:50:10;101834.84;;;2.75;79.67
64841;BME280;51307;52.162;7.560;2023-11-18T06:52:40;101829.25;;;2.81;79.31
64841;BME280;51307;52.162;7.560;2023-11-18T06:55:07;101826.72;;;2.62;80.32
64841;BME280;51307;52.162;7.560;2023-11-18T06:57:33;101822.22;;;2.64;80.52
64841;BME280;51307;52.162;7.560;2023-11-18T06:59:58;101821.00;;;2.53;80.32
64841;BME280;51307;52.162;7.560;2023-11-18T07:02:24;101811.97;;;2.58;80.98
64841;BME280;51307;52.162;7.560;2023-11-18T07:04:49;101826.91;;;2.59;80.97
64841;BME280;51307;52.162;7.560;2023-11-18T07:07:14;101816.44;;;2.73;80.04
64841;BME280;51307;52.162;7.560;2023-11-18T07:09:40;101823.09;;;2.80;79.56
64841;BME280;51307;52.162;7.560;2023-11-18T07:12:06;101820.84;;;2.73;80.06
64841;BME280;51307;52.162;7.560;2023-11-18T07:14:32;101816.25;;;2.76;80.26
64841;BME280;51307;52.162;7.560;2023-11-18T07:16:58;101822.06;;;2.67;80.64
64841;BME280;51307;52.162;7.560;2023-11-18T07:19:24;101825.63;;;2.66;80.75
64841;BME280;51307;52.162;7.560;2023-11-18T07:21:50;101829.25;;;2.81;80.45
64841;BME280;51307;52.162;7.560;2023-11-18T07:24:16;101838.19;;;2.78;80.05
64841;BME280;51307;52.162;7.560;2023-11-18T07:26:42;101832.44;;;2.70;80.98
64841;BME280;51307;52.162;7.560;2023-11-18T07:29:09;101839.81;;;2.81;80.59
64841;BME280;51307;52.162;7.560;2023-11-18T07:31:34;101837.19;;;2.81;80.85
64841;BME280;51307;52.162;7.560;2023-11-18T07:34:04;101832.13;;;2.92;80.52
64841;BME280;51307;52.162;7.560;2023-11-18T07:36:31;101817.38;;;3.20;79.83
64841;BME280;51307;52.162;7.560;2023-11-18T07:38:58;101816.88;;;2.97;80.18
64841;BME280;51307;52.162;7.560;2023-11-18T07:41:27;101817.38;;;2.88;81.16
64841;BME280;51307;52.162;7.560;2023-11-18T07:43:53;101812.50;;;3.12;79.59
64841;BME280;51307;52.162;7.560;2023-11-18T07:46:24;101816.28;;;2.92;81.05
64841;BME280;51307;52.162;7.560;2023-11-18T07:48:50;101817.91;;;2.95;81.60
64841;BME280;51307;52.162;7.560;2023-11-18T07:51:18;101807.72;;;3.19;80.20
64841;BME280;51307;52.162;7.560;2023-11-18T07:53:49;101809.97;;;3.11;80.09
64841;BME280;51307;52.162;7.560;2023-11-18T07:56:15;101820.19;;;3.01;80.88
64841;BME280;51307;52.162;7.560;2023-11-18T07:58:45;101812.50;;;3.12;80.42
64841;BME280;51307;52.162;7.560;2023-11-18T08:01:14;101811.06;;;3.07;80.89
64841;BME280;51307;52.162;7.560;2023-11-18T08:03:42;101816.59;;;3.02;81.51
64841;BME280;51307;52.162;7.560;2023-11-18T08:06:08;101829.59;;;3.07;81.65
64841;BME280;51307;52.162;7.560;2023-11-18T08:08:34;101821.78;;;3.19;81.12
64841;BME280;51307;52.162;7.560;2023-11-18T08:11:01;101826.56;;;3.13;81.11
64841;BME280;51307;52.162;7.560;2023-11-18T08:13:27;101822.25;;;3.12;81.87
64841;BME280;51307;52.162;7.560;2023-11-18T08:15:52;101830.59;;;3.20;81.97
64841;BME280;51307;52.162;7.560;2023-11-18T08:18:18;101834.00;;;3.22;81.73
64841;BME280;51307;52.162;7.560;2023-11-18T08:20:46;101842.22;;;3.48;80.77
64841;BME280;51307;52.162;7.560;2023-11-18T08:23:12;101836.31;;;3.59;80.32
64841;BME280;51307;52.162;7.560;2023-11-18T08:25:37;101836.00;;;3.49;81.05
64841;BME280;51307;52.162;7.560;2023-11-18T08:28:04;101835.00;;;3.35;82.35
64841;BME280;51307;52.162;7.560;2023-11-18T08:30:30;101833.47;;;3.31;82.70
64841;BME280;51307;52.162;7.560;2023-11-18T08:32:55;101839.28;;;3.38;82.17
64841;BME280;51307;52.162;7.560;2023-11-18T08:35:22;101824.78;;;3.29;83.31
64841;BME280;51307;52.162;7.560;2023-11-18T08:37:48;101819.81;;;3.39;83.03
64841;BME280;51307;52.162;7.560;2023-11-18T08:40:14;101823.88;;;3.61;82.23
64841;BME280;51307;52.162;7.560;2023-11-18T08:42:51;101809.44;;;3.50;82.79
64841;BME280;51307;52.162;7.560;2023-11-18T08:47:45;101802.59;;;3.62;82.17
64841;BME280;51307;52.162;7.560;2023-11-18T08:50:15;101796.84;;;3.70;81.81
64841;BME280;51307;52.162;7.560;2023-11-18T08:52:46;101796.94;;;3.68;82.30
64841;BME280;51307;52.162;7.560;2023-11-18T08:55:15;101799.59;;;3.83;81.77
64841;BME280;51307;52.162;7.560;2023-11-18T08:58:00;101788.25;;;3.66;82.74
64841;BME280;51307;52.162;7.560;2023-11-18T09:00:31;101787.78;;;3.74;82.28
64841;BME280;51307;52.162;7.560;2023-11-18T09:03:23;101784.56;;;3.69;82.89
64841;BME280;51307;52.162;7.560;2023-11-18T09:06:03;101776.72;;;3.67;82.87
64841;BME280;51307;52.162;7.560;2023-11-18T09:08:37;101781.53;;;3.61;83.52
64841;BME280;51307;52.162;7.560;2023-11-18T09:11:10;101777.94;;;3.62;83.64
64841;BME280;51307;52.162;7.560;2023-11-18T09:13:37;101775.00;;;3.66;83.71
64841;BME280;51307;52.162;7.560;2023-11-18T09:16:07;101774.00;;;3.83;82.93
64841;BME280;51307;52.162;7.560;2023-11-18T09:18:38;101765.09;;;3.84;82.60
64841;BME280;51307;52.162;7.560;2023-11-18T09:21:06;101739.84;;;3.79;82.75
64841;BME280;51307;52.162;7.560;2023-11-18T09:23:33;101729.91;;;3.68;84.00
64841;BME280;51307;52.162;7.560;2023-11-18T09:26:03;101722.75;;;3.70;84.21
64841;BME280;51307;52.162;7.560;2023-11-18T09:28:34;101719.25;;;3.84;83.75
64841;BME280;51307;52.162;7.560;2023-11-18T09:31:01;101712.31;;;3.67;84.96
64841;BME280;51307;52.162;7.560;2023-11-18T09:33:31;101706.38;;;3.92;84.05
64841;BME280;51307;52.162;7.560;2023-11-18T09:36:04;101708.09;;;3.79;84.44
64841;BME280;51307;52.162;7.560;2023-11-18T09:38:37;101711.50;;;3.95;83.54
64841;BME280;51307;52.162;7.560;2023-11-18T09:41:07;101710.91;;;4.04;83.85
64841;BME280;51307;52.162;7.560;2023-11-18T09:43:37;101701.88;;;3.94;84.40
64841;BME280;51307;52.162;7.560;2023-11-18T09:46:17;101705.81;;;3.87;85.13
64841;BME280;51307;52.162;7.560;2023-11-18T09:48:46;101702.44;;;3.99;84.14
64841;BME280;51307;52.162;7.560;2023-11-18T09:51:18;101712.81;;;4.02;84.23
64841;BME280;51307;52.162;7.560;2023-11-18T09:53:52;101718.13;;;4.02;84.68
64841;BME280;51307;52.162;7.560;2023-11-18T09:59:25;101711.69;;;4.07;84.53
64841;BME280;51307;52.162;7.560;2023-11-18T10:01:57;101713.09;;;4.27;83.90
64841;BME280;51307;52.162;7.560;2023-11-18T10:04:24;101701.94;;;4.21;84.39
64841;BME280;51307;52.162;7.560;2023-11-18T10:06:54;101707.13;;;4.23;84.64
64841;BME280;51307;52.162;7.560;2023-11-18T10:09:23;101701.34;;;4.31;84.59
64841;BME280;51307;52.162;7.560;2023-11-18T10:11:55;101697.47;;;4.22;85.06
64841;BME280;51307;52.162;7.560;2023-11-18T10:14:37;101693.78;;;4.25;84.85
64841;BME280;51307;52.162;7.560;2023-11-18T10:17:07;101688.00;;;4.18;84.97
64841;BME280;51307;52.162;7.560;2023-11-18T10:19:55;101679.13;;;4.33;85.22
64841;BME280;51307;52.162;7.560;2023-11-18T10:22:26;101691.91;;;4.27;85.46
64841;BME280;51307;52.162;7.560;2023-11-18T10:24:52;101684.22;;;4.36;85.06
64841;BME280;51307;52.162;7.560;2023-11-18T10:27:24;101685.19;;;4.21;86.42
64841;BME280;51307;52.162;7.560;2023-11-18T10:30:04;101677.19;;;4.35;85.91
64841;BME280;51307;52.162;7.560;2023-11-18T10:32:30;101678.69;;;4.39;85.76
64841;BME280;51307;52.162;7.560;2023-11-18T10:35:01;101681.97;;;4.30;86.16
64841;BME280;51307;52.162;7.560;2023-11-18T10:37:27;101671.91;;;4.35;86.15
64841;BME280;51307;52.162;7.560;2023-11-18T10:39:56;101671.31;;;4.45;85.86
64841;BME280;51307;52.162;7.560;2023-11-18T10:42:26;101662.06;;;4.52;85.90
64841;BME280;51307;52.162;7.560;2023-11-18T10:44:58;101662.25;;;4.49;85.76
64841;BME280;51307;52.162;7.560;2023-11-18T10:47:27;101654.38;;;4.47;85.89
64841;BME280;51307;52.162;7.560;2023-11-18T10:49:54;101649.97;;;4.48;86.45
64841;BME280;51307;52.162;7.560;2023-11-18T10:52:22;101658.66;;;4.50;86.37
64841;BME280;51307;52.162;7.560;2023-11-18T10:54:54;101643.59;;;4.50;86.82
64841;BME280;51307;52.162;7.560;2023-11-18T10:57:24;101636.72;;;4.48;86.52
64841;BME280;51307;52.162;7.560;2023-11-18T11:00:03;101629.13;;;4.56;86.52
64841;BME280;51307;52.162;7.560;2023-11-18T11:02:33;101622.00;;;4.57;86.57
64841;BME280;51307;52.162;7.560;2023-11-18T11:05:05;101619.44;;;4.55;86.56
64841;BME280;51307;52.162;7.560;2023-11-18T11:07:35;101620.28;;;4.55;86.48
64841;BME280;51307;52.162;7.560;2023-11-18T11:10:02;101620.50;;;4.52;86.35
64841;BME280;51307;52.162;7.560;2023-11-18T11:12:35;101604.72;;;4.64;86.52
64841;BME280;51307;52.162;7.560;2023-11-18T11:15:30;101587.97;;;4.63;86.78
64841;BME280;51307;52.162;7.560;2023-11-18T11:18:08;101587.44;;;4.58;86.91
64841;BME280;51307;52.162;7.560;2023-11-18T11:20:39;101582.56;;;4.65;86.97
64841;BME280;51307;52.162;7.560;2023-11-18T11:23:21;101586.59;;;4.70;86.70
64841;BME280;51307;52.162;7.560;2023-11-18T11:26:18;101605.16;;;4.70;86.97
64841;BME280;51307;52.162;7.560;2023-11-18T11:29:04;101617.19;;;4.76;86.69
64841;BME280;51307;52.162;7.560;2023-11-18T11:31:39;101608.97;;;4.66;87.51
64841;BME280;51307;52.162;7.560;2023-11-18T11:34:17;101610.19;;;4.75;87.21
64841;BME280;51307;52.162;7.560;2023-11-18T11:36:51;101595.66;;;4.81;87.05
64841;BME280;51307;52.162;7.560;2023-11-18T11:39:19;101583.44;;;4.65;87.90
64841;BME280;51307;52.162;7.560;2023-11-18T11:41:53;101573.72;;;4.79;87.78
64841;BME280;51307;52.162;7.560;2023-11-18T11:44:25;101575.00;;;4.86;87.23
64841;BME280;51307;52.162;7.560;2023-11-18T11:47:08;101571.78;;;4.81;87.82
64841;BME280;51307;52.162;7.560;2023-11-18T11:49:47;101572.44;;;4.84;87.17
64841;BME280;51307;52.162;7.560;2023-11-18T11:52:23;101577.72;;;4.71;88.39
64841;BME280;51307;52.162;7.560;2023-11-18T11:57:28;101570.09;;;4.80;88.07
64841;BME280;51307;52.162;7.560;2023-11-18T11:59:55;101576.81;;;4.85;87.96
64841;BME280;51307;52.162;7.560;2023-11-18T12:02:26;101567.56;;;4.91;87.55
64841;BME280;51307;52.162;7.560;2023-11-18T12:04:56;101573.19;;;4.86;88.14
64841;BME280;51307;52.162;7.560;2023-11-18T12:07:25;101566.41;;;4.95;87.59
64841;BME280;51307;52.162;7.560;2023-11-18T12:09:56;101562.28;;;4.91;88.12
64841;BME280;51307;52.162;7.560;2023-11-18T12:12:25;101564.50;;;4.97;87.97
64841;BME280;51307;52.162;7.560;2023-11-18T12:14:58;101548.28;;;5.02;87.89
64841;BME280;51307;52.162;7.560;2023-11-18T12:23:20;101536.81;;;4.88;88.93
64841;BME280;51307;52.162;7.560;2023-11-18T12:25:50;101522.06;;;4.97;88.82
64841;BME280;51307;52.162;7.560;2023-11-18T12:28:29;101517.16;;;5.04;88.52
64841;BME280;51307;52.162;7.560;2023-11-18T12:31:04;101516.13;;;5.06;88.45
64841;BME280;51307;52.162;7.560;2023-11-18T12:34:00;101512.75;;;5.04;88.79
64841;BME280;51307;52.162;7.560;2023-11-18T12:42:01;101455.09;;;5.06;89.85
64841;BME280;51307;52.162;7.560;2023-11-18T12:47:43;101454.38;;;5.04;90.75
64841;BME280;51307;52.162;7.560;2023-11-18T12:50:10;101447.91;;;5.09;90.25
64841;BME280;51307;52.162;7.560;2023-11-18T12:52:51;101456.63;;;4.98;91.18
64841;BME280;51307;52.162;7.560;2023-11-18T12:55:17;101450.56;;;5.09;90.64
64841;BME280;51307;52.162;7.560;2023-11-18T12:57:48;101441.53;;;5.11;90.96
64841;BME280;51307;52.162;7.560;2023-11-18T13:00:16;101459.56;;;4.93;91.94
64841;BME280;51307;52.162;7.560;2023-11-18T13:02:52;101443.00;;;5.15;91.02
64841;BME280;51307;52.162;7.560;2023-11-18T13:05:17;101445.03;;;5.12;90.95
64841;BME280;51307;52.162;7.560;2023-11-18T13:07:43;101441.66;;;5.10;91.44
64841;BME280;51307;52.162;7.560;2023-11-18T13:10:09;101429.63;;;5.17;91.55
64841;BME280;51307;52.162;7.560;2023-11-18T13:12:34;101418.72;;;5.09;92.28
64841;BME280;51307;52.162;7.560;2023-11-18T13:15:01;101413.41;;;5.09;92.45
64841;BME280;51307;52.162;7.560;2023-11-18T13:17:27;101406.47;;;5.19;92.08
64841;BME280;51307;52.162;7.560;2023-11-18T13:19:53;101403.16;;;5.28;91.46
64841;BME280;51307;52.162;7.560;2023-11-18T13:22:19;101409.03;;;5.20;92.33
64841;BME280;51307;52.162;7.560;2023-11-18T13:24:45;101388.53;;;5.22;92.08
64841;BME280;51307;52.162;7.560;2023-11-18T13:27:15;101395.03;;;5.18;92.74
64841;BME280;51307;52.162;7.560;2023-11-18T13:29:45;101385.78;;;5.24;92.40
64841;BME280;51307;52.162;7.560;2023-11-18T13:32:15;101380.94;;;5.18;93.28